Time;durP1;ratioP1;P1;durP2;ratioP2;P2;SDS_P1;SDS_P2;PMS_P1;PMS_P2;Temp;Humidity;BMP_temperature;BMP_pressure;BME280_temperature;BME280_humidity;BME280_pressure;Samples;Min_cycle;Max_cycle;Signal;HPM_P1;HPM_P2
2022/01/24 00:01:45;;;;;;;16.35;8.95;;;;;;;4.78;100.00;103306.44;4899089;29;20239;-45
2022/01/24 00:04:11;;;;;;;14.75;9.15;;;;;;;4.72;100.00;103311.56;4898411;29;20180;-43
2022/01/24 00:06:37;;;;;;;10.57;8.48;;;;;;;4.76;100.00;103300.19;4898841;29;20662;-44
2022/01/24 00:09:04;;;;;;;14.43;9.25;;;;;;;4.75;100.00;103295.75;4898675;29;20185;-46
2022/01/24 00:12:18;;;;;;;13.23;8.55;;;;;;;4.69;100.00;103299.13;4898722;29;20486;-44
2022/01/24 00:17:06;;;;;;;10.50;8.60;;;;;;;4.72;100.00;103299.22;4898705;29;20196;-42
2022/01/24 00:27:44;;;;;;;9.75;8.75;;;;;;;4.68;100.00;103293.75;4898542;29;20719;-41
2022/01/24 00:30:10;;;;;;;10.13;8.68;;;;;;;4.68;100.00;103293.75;4898629;29;20180;-43
2022/01/24 00:32:36;;;;;;;11.55;8.43;;;;;;;4.70;100.00;103292.03;4898520;29;20177;-42
2022/01/24 00:35:01;;;;;;;9.77;8.38;;;;;;;4.70;100.00;103297.34;4898661;29;20557;-42
2022/01/24 00:37:30;;;;;;;11.20;8.63;;;;;;;4.72;100.00;103300.94;4898206;29;20244;-41
2022/01/24 00:39:56;;;;;;;10.43;9.18;;;;;;;4.67;100.00;103300.84;4898142;29;20247;-40
2022/01/24 00:42:37;;;;;;;11.60;9.00;;;;;;;4.72;100.00;103298.28;4898487;29;20611;-42
2022/01/24 00:45:19;;;;;;;11.65;8.23;;;;;;;4.78;100.00;103297.56;4898151;29;20215;-42
2022/01/24 00:48:05;;;;;;;14.85;9.18;;;;;;;4.69;100.00;103295.56;4898017;29;20223;-43
2022/01/24 00:55:48;;;;;;;13.43;9.63;;;;;;;4.65;100.00;103291.94;4897843;29;20232;-44
2022/01/24 00:58:14;;;;;;;13.63;9.82;;;;;;;4.67;100.00;103287.56;4898039;29;20681;-41
2022/01/24 01:00:40;;;;;;;19.88;9.65;;;;;;;4.68;100.00;103277.81;4898030;29;20181;-41
2022/01/24 01:03:06;;;;;;;13.50;10.20;;;;;;;4.65;100.00;103288.38;4897862;29;20175;-41
2022/01/24 01:18:46;;;;;;;14.30;10.38;;;;;;;4.62;100.00;103283.91;4897779;29;20176;-41
2022/01/24 01:21:14;;;;;;;17.98;10.52;;;;;;;4.62;100.00;103288.31;4897571;29;20545;-41
2022/01/24 01:23:45;;;;;;;17.23;10.88;;;;;;;4.63;100.00;103280.38;4897375;29;20204;-42
2022/01/24 01:26:21;;;;;;;14.23;9.90;;;;;;;4.68;100.00;103277.81;4897285;29;20212;-41
2022/01/24 01:28:49;;;;;;;13.82;9.95;;;;;;;4.64;100.00;103278.63;4897473;29;20176;-44
2022/01/24 01:31:29;;;;;;;15.65;10.55;;;;;;;4.66;100.00;103268.97;4897375;29;20208;-43
2022/01/24 01:34:12;;;;;;;14.50;10.32;;;;;;;4.66;100.00;103279.56;4897172;29;20173;-41
2022/01/24 01:37:41;;;;;;;15.52;10.88;;;;;;;4.63;100.00;103277.72;4897067;29;20240;-44
2022/01/24 01:53:28;;;;;;;15.55;11.27;;;;;;;4.61;100.00;103283.84;4897031;29;20535;-40
2022/01/24 01:55:51;;;;;;;14.55;12.02;;;;;;;4.64;100.00;103287.50;4896696;29;20544;-42
2022/01/24 01:58:21;;;;;;;16.45;11.90;;;;;;;4.62;100.00;103285.66;4896745;29;20217;-42
2022/01/24 02:00:53;;;;;;;18.00;11.77;;;;;;;4.61;100.00;103278.53;4896171;29;20169;-43
2022/01/24 02:03:20;;;;;;;14.85;11.95;;;;;;;4.61;100.00;103279.44;4896544;29;20646;-45
2022/01/24 02:05:46;;;;;;;17.63;11.85;;;;;;;4.62;100.00;103280.34;4896509;29;20260;-43
2022/01/24 02:08:11;;;;;;;20.80;12.05;;;;;;;4.58;100.00;103282.03;4896825;29;20681;-41
2022/01/24 02:10:38;;;;;;;20.50;12.52;;;;;;;4.58;100.00;103283.78;4896807;29;20231;-43
2022/01/24 02:13:04;;;;;;;17.30;12.27;;;;;;;4.56;100.00;103283.72;4896621;29;20173;-39
2022/01/24 02:23:45;;;;;;;15.20;11.80;;;;;;;4.61;100.00;103284.75;4914388;29;20653;-42
2022/01/24 02:26:17;;;;;;;17.95;12.98;;;;;;;4.56;100.00;103280.19;4904457;29;20209;-41
2022/01/24 02:28:58;;;;;;;17.23;12.48;;;;;;;4.55;100.00;103271.34;4898508;29;20602;-41
2022/01/24 02:33:52;;;;;;;21.58;12.52;;;;;;;4.54;100.00;103274.81;4914479;29;20239;-42
2022/01/24 02:36:22;;;;;;;16.83;12.80;;;;;;;4.49;100.00;103279.13;4914687;29;20637;-42
2022/01/24 02:49:27;;;;;;;21.90;13.70;;;;;;;4.56;100.00;103264.25;4908842;29;20175;-46
2022/01/24 02:52:05;;;;;;;22.38;14.13;;;;;;;4.49;100.00;103268.50;4895640;29;20248;-46
2022/01/24 02:54:32;;;;;;;19.10;13.90;;;;;;;4.52;100.00;103256.19;4895538;29;20168;-46
2022/01/24 02:56:58;;;;;;;20.20;14.05;;;;;;;4.51;100.00;103254.41;4895413;29;20260;-43
2022/01/24 02:59:24;;;;;;;18.23;14.15;;;;;;;4.50;100.00;103263.25;4895605;29;20200;-41
2022/01/24 03:01:49;;;;;;;19.95;14.60;;;;;;;4.49;100.00;103264.09;4896073;29;20654;-45
2022/01/24 03:04:15;;;;;;;21.08;14.68;;;;;;;4.46;100.00;103263.09;4909723;29;20714;-40
2022/01/24 03:10:35;;;;;;;20.40;13.50;;;;;;;4.47;100.00;103265.81;4895346;29;20232;-40
2022/01/24 03:15:50;;;;;;;19.92;14.82;;;;;;;4.54;100.00;103250.94;4894791;29;20626;-40
2022/01/24 03:18:17;;;;;;;16.85;14.45;;;;;;;4.51;100.00;103259.72;4895304;29;20713;-40
2022/01/24 03:20:43;;;;;;;17.33;14.00;;;;;;;4.52;100.00;103258.84;4895031;29;20184;-41
2022/01/24 03:23:10;;;;;;;17.25;14.60;;;;;;;4.56;100.00;103256.28;4895326;29;20578;-40
2022/01/24 03:25:36;;;;;;;19.45;14.15;;;;;;;4.52;100.00;103258.84;4894388;29;20320;-40
2022/01/24 03:28:04;;;;;;;19.67;14.63;;;;;;;4.52;100.00;103250.00;4895320;29;20378;-40
2022/01/24 03:30:30;;;;;;;19.90;14.55;;;;;;;4.51;100.00;103245.56;4894914;29;20209;-41
2022/01/24 03:32:56;;;;;;;20.98;15.82;;;;;;;4.61;100.00;103259.94;4895145;29;20168;-40
2022/01/24 03:35:21;;;;;;;18.40;14.48;;;;;;;4.56;100.00;103253.63;4894677;29;20181;-41
2022/01/24 03:37:47;;;;;;;19.65;15.10;;;;;;;4.51;100.00;103253.53;4895092;29;20219;-47
2022/01/24 03:40:12;;;;;;;19.98;15.52;;;;;;;4.53;100.00;103254.47;4895215;29;20244;-42
2022/01/24 03:42:38;;;;;;;19.30;14.13;;;;;;;4.53;100.00;103251.81;4894991;29;20177;-40
2022/01/24 03:45:07;;;;;;;21.98;15.07;;;;;;;4.56;100.00;103245.66;4895017;29;20169;-40
2022/01/24 03:50:00;;;;;;;21.20;15.20;;;;;;;4.53;100.00;103235.88;4893819;29;20232;-41
2022/01/24 03:52:26;;;;;;;17.42;14.07;;;;;;;4.53;100.00;103235.88;4895331;29;20319;-42
2022/01/24 03:54:52;;;;;;;20.70;16.13;;;;;;;4.51;100.00;103233.19;4894532;29;20177;-40
2022/01/24 03:57:19;;;;;;;21.38;15.15;;;;;;;4.53;100.00;103231.47;4895367;29;20240;-41
2022/01/24 03:59:45;;;;;;;19.13;15.50;;;;;;;4.58;100.00;103236.00;4895002;29;20179;-43
2022/01/24 04:02:12;;;;;;;19.73;14.00;;;;;;;4.58;100.00;103228.91;4893872;29;20279;-42
2022/01/24 04:04:38;;;;;;;19.67;15.15;;;;;;;4.58;100.00;103228.91;4894750;29;20180;-46
2022/01/24 04:07:04;;;;;;;17.83;15.43;;;;;;;4.67;100.00;103230.91;4893600;29;20195;-44
2022/01/24 04:09:29;;;;;;;20.23;14.90;;;;;;;4.57;100.00;103237.75;4893836;29;20177;-44
2022/01/24 04:11:57;;;;;;;21.50;15.45;;;;;;;4.53;100.00;103230.56;4894920;29;20185;-41
2022/01/24 04:22:09;;;;;;;19.55;14.38;;;;;;;4.54;100.00;103245.63;4911064;29;20203;-42
2022/01/24 04:24:35;;;;;;;17.98;15.07;;;;;;;4.55;100.00;103247.44;4916482;29;20184;-43
2022/01/24 04:27:00;;;;;;;17.27;14.48;;;;;;;4.53;100.00;103254.47;4917072;29;20400;-42
2022/01/24 04:29:25;;;;;;;16.20;14.23;;;;;;;4.53;100.00;103250.03;4917087;29;20176;-39
2022/01/24 04:31:51;;;;;;;20.23;14.43;;;;;;;4.51;100.00;103257.06;4917381;29;20172;-40
2022/01/24 04:34:16;;;;;;;22.63;14.48;;;;;;;4.51;100.00;103246.44;4916686;29;20215;-43
2022/01/24 04:36:42;;;;;;;17.30;14.13;;;;;;;4.51;100.00;103241.13;4917123;29;20323;-41
2022/01/24 04:39:08;;;;;;;19.10;14.52;;;;;;;4.58;100.00;103246.63;4917231;29;20286;-43
2022/01/24 04:41:40;;;;;;;16.10;14.45;;;;;;;4.45;100.00;103253.34;4916826;29;20525;-41
2022/01/24 04:54:42;;;;;;;16.33;13.80;;;;;;;4.46;100.00;103250.75;4897361;29;20188;-43
2022/01/24 04:57:19;;;;;;;17.63;13.15;;;;;;;4.48;100.00;103259.66;4897506;29;20263;-41
2022/01/24 04:59:47;;;;;;;16.90;13.63;;;;;;;4.53;100.00;103263.31;4897763;29;20717;-42
2022/01/24 05:02:18;;;;;;;17.67;14.27;;;;;;;4.49;100.00;103261.44;4897962;29;20177;-41
2022/01/24 05:04:44;;;;;;;15.50;13.90;;;;;;;4.49;100.00;103252.59;4897192;29;20264;-41
2022/01/24 05:07:09;;;;;;;16.10;13.70;;;;;;;4.49;100.00;103250.81;4897607;29;20228;-41
2022/01/24 05:09:41;;;;;;;17.20;14.63;;;;;;;4.46;100.00;103253.41;4894691;29;20187;-45
2022/01/24 05:25:58;;;;;;;15.23;12.88;;;;;;;4.47;100.00;103259.59;4900912;29;20271;-40
2022/01/24 05:28:24;;;;;;;17.60;13.82;;;;;;;4.44;100.00;103257.78;4909841;29;20191;-41
2022/01/24 05:30:50;;;;;;;15.95;13.90;;;;;;;4.44;100.00;103267.47;4916137;29;20567;-42
2022/01/24 05:33:16;;;;;;;17.70;14.40;;;;;;;4.44;100.00;103256.84;4914487;29;20712;-41
2022/01/24 05:35:41;;;;;;;16.38;14.10;;;;;;;4.43;100.00;103255.97;4929888;29;20274;-41
2022/01/24 05:38:07;;;;;;;16.80;15.02;;;;;;;4.42;100.00;103248.88;4915653;29;20200;-44
2022/01/24 05:40:33;;;;;;;15.57;13.95;;;;;;;4.46;100.00;103261.38;4916015;29;20194;-47
2022/01/24 05:42:59;;;;;;;17.70;14.02;;;;;;;4.47;100.00;103262.25;4915757;29;20183;-42
2022/01/24 05:45:24;;;;;;;19.15;15.30;;;;;;;4.45;100.00;103259.56;4915307;29;20188;-42
2022/01/24 05:47:50;;;;;;;19.42;14.40;;;;;;;4.44;100.00;103252.47;4915946;29;20188;-41
2022/01/24 05:50:15;;;;;;;16.73;13.82;;;;;;;4.42;100.00;103251.53;4898704;29;20194;-44
2022/01/24 05:52:41;;;;;;;17.20;14.63;;;;;;;4.42;100.00;103243.56;4878281;29;20189;-44
2022/01/24 05:55:07;;;;;;;17.88;14.15;;;;;;;4.43;100.00;103260.38;4877673;29;20555;-44
2022/01/24 05:57:32;;;;;;;15.77;12.70;;;;;;;4.44;100.00;103263.09;4877536;29;20236;-42
2022/01/24 05:59:58;;;;;;;14.93;13.18;;;;;;;4.39;100.00;103259.38;4877918;29;20636;-44
2022/01/24 06:02:23;;;;;;;15.82;12.82;;;;;;;4.38;100.00;103268.22;4877851;29;20212;-42
2022/01/24 06:04:49;;;;;;;16.10;12.95;;;;;;;4.44;100.00;103262.16;4877660;29;20185;-41
2022/01/24 06:07:15;;;;;;;14.88;13.02;;;;;;;4.43;100.00;103263.91;4877770;29;20686;-43
2022/01/24 06:09:40;;;;;;;15.23;13.05;;;;;;;4.44;100.00;103265.75;4877723;29;20276;-44
2022/01/24 06:12:06;;;;;;;14.60;12.45;;;;;;;4.42;100.00;103259.50;4877653;29;20719;-44
2022/01/24 06:14:32;;;;;;;15.77;13.05;;;;;;;4.42;100.00;103272.75;4876882;29;20217;-45
2022/01/24 06:16:57;;;;;;;13.98;12.57;;;;;;;4.40;100.00;103270.94;4892594;29;20243;-43
2022/01/24 06:19:23;;;;;;;16.25;12.63;;;;;;;4.43;100.00;103273.66;4896358;29;20229;-43
2022/01/24 06:21:48;;;;;;;16.80;13.20;;;;;;;4.40;100.00;103266.50;4897023;29;20654;-41
2022/01/24 06:24:14;;;;;;;14.35;12.85;;;;;;;4.40;100.00;103262.97;4896354;29;20208;-43
2022/01/24 06:26:40;;;;;;;14.73;12.52;;;;;;;4.41;100.00;103270.94;4896403;29;20204;-42
2022/01/24 06:29:06;;;;;;;14.55;12.77;;;;;;;4.38;100.00;103262.91;4896117;29;20192;-44
2022/01/24 06:31:31;;;;;;;14.20;12.70;;;;;;;4.38;nan;103260.25;4894643;29;20560;-43
2022/01/24 06:33:58;;;;;;;13.40;12.00;;;;;;;4.39;100.00;103270.00;4895652;29;20638;-41
2022/01/24 06:36:24;;;;;;;17.45;12.95;;;;;;;4.33;100.00;103267.22;4895597;29;20192;-43
2022/01/24 06:38:50;;;;;;;14.95;12.60;;;;;;;4.40;100.00;103270.94;4896475;29;20697;-42
2022/01/24 06:41:24;;;;;;;14.68;12.50;;;;;;;4.43;100.00;103271.00;4895750;29;20208;-44
2022/01/24 06:43:50;;;;;;;13.00;11.15;;;;;;;4.38;100.00;103273.53;4895427;29;20201;-43
2022/01/24 06:46:15;;;;;;;13.77;12.38;;;;;;;4.45;100.00;103280.78;4895185;29;20724;-42
2022/01/24 06:48:40;;;;;;;13.98;12.07;;;;;;;4.42;100.00;103286.03;4895585;29;20175;-43
2022/01/24 06:51:10;;;;;;;14.70;11.75;;;;;;;4.40;100.00;103287.75;4895453;29;20192;-44
2022/01/24 06:53:40;;;;;;;13.50;12.10;;;;;;;4.34;100.00;103287.56;4895261;29;20180;-43
2022/01/24 06:56:06;;;;;;;13.75;12.05;;;;;;;4.34;100.00;103290.22;4896108;29;20692;-44
2022/01/24 06:58:33;;;;;;;14.52;12.75;;;;;;;4.37;100.00;103294.72;4895613;29;20204;-43
2022/01/24 07:00:58;;;;;;;14.02;12.52;;;;;;;4.36;100.00;103292.94;4895502;29;20180;-44
2022/01/24 07:03:24;;;;;;;13.75;12.27;;;;;;;4.34;100.00;103282.25;4895617;29;20615;-42
2022/01/24 07:05:49;;;;;;;14.27;12.68;;;;;;;4.33;100.00;103292.00;4895595;29;20390;-43
2022/01/24 07:08:15;;;;;;;13.52;12.23;;;;;;;4.40;100.00;103287.75;4895554;29;20164;-44
2022/01/24 07:10:40;;;;;;;15.82;12.40;;;;;;;4.33;100.00;103283.13;4895359;29;20268;-41
2022/01/24 07:13:05;;;;;;;13.82;12.40;;;;;;;4.35;100.00;103284.03;4895734;29;20244;-46
2022/01/24 07:15:35;;;;;;;16.98;12.10;;;;;;;4.43;100.00;103279.84;4893664;29;20173;-42
2022/01/24 07:20:35;;;;;;;14.82;11.40;;;;;;;4.43;100.00;103282.50;4914252;29;20799;-44
2022/01/24 07:23:05;;;;;;;14.80;12.77;;;;;;;4.36;100.00;103279.66;4913592;29;20251;-48
2022/01/24 07:25:30;;;;;;;14.13;11.93;;;;;;;4.38;100.00;103273.53;4901829;29;20563;-41
2022/01/24 07:27:56;;;;;;;13.13;11.68;;;;;;;4.44;100.00;103283.41;4894188;29;20188;-42
2022/01/24 07:30:21;;;;;;;12.50;11.20;;;;;;;4.37;100.00;103285.00;4894483;29;20180;-45
2022/01/24 07:32:47;;;;;;;14.52;12.05;;;;;;;4.34;100.00;103275.19;4894521;29;20627;-42
2022/01/24 07:35:12;;;;;;;13.68;12.13;;;;;;;4.39;100.00;103282.38;4894498;29;20215;-42
2022/01/24 07:37:38;;;;;;;16.58;11.95;;;;;;;4.34;100.00;103293.78;4894737;29;20208;-43
2022/01/24 07:40:06;;;;;;;12.13;10.60;;;;;;;4.32;100.00;103282.22;4893869;29;20204;-42
2022/01/24 07:43:17;;;;;;;13.82;11.38;;;;;;;4.40;100.00;103290.41;4895042;29;20260;-43
2022/01/24 07:45:20;;;;;;;14.20;11.75;;;;;;;4.34;100.00;103283.16;4893685;29;20296;-43
2022/01/24 07:47:47;;;;;;;13.68;11.25;;;;;;;4.41;100.00;103288.63;4894396;29;20682;-41
2022/01/24 07:50:14;;;;;;;12.60;11.45;;;;;;;4.36;100.00;103280.56;4894698;29;20212;-44
2022/01/24 07:52:40;;;;;;;11.75;10.65;;;;;;;4.41;100.00;103278.91;4894522;29;20674;-43
2022/01/24 07:55:06;;;;;;;14.48;11.93;;;;;;;4.38;100.00;103273.53;4893983;29;20216;-45
2022/01/24 07:57:31;;;;;;;13.82;11.88;;;;;;;4.35;100.00;103284.03;4893841;29;20205;-42
2022/01/24 07:59:56;;;;;;;14.73;12.30;;;;;;;4.34;100.00;103279.59;4897322;29;20593;-43
2022/01/24 08:02:22;;;;;;;14.30;12.63;;;;;;;4.34;100.00;103282.25;4896971;29;20183;-43
2022/01/24 08:04:47;;;;;;;17.10;15.50;;;;;;;4.30;100.00;103275.06;4898289;29;20188;-43
2022/01/24 08:07:13;;;;;;;16.45;13.23;;;;;;;4.31;100.00;103282.19;4897070;29;20659;-44
2022/01/24 08:09:38;;;;;;;15.55;12.85;;;;;;;4.30;100.00;103283.94;4898030;29;20501;-43
2022/01/24 08:12:05;;;;;;;16.85;13.13;;;;;;;4.31;100.00;103275.13;4898117;29;20267;-42
2022/01/24 08:14:31;;;;;;;12.20;10.98;;;;;;;4.33;100.00;103275.19;4897184;29;20733;-45
2022/01/24 08:16:56;;;;;;;13.82;11.55;;;;;;;4.32;99.82;103279.56;4897906;29;20207;-42
2022/01/24 08:19:21;;;;;;;14.75;10.93;;;;;;;4.36;99.63;103277.00;4897889;29;20176;-42
2022/01/24 08:21:47;;;;;;;14.07;10.90;;;;;;;4.36;99.35;103279.66;4897880;29;20559;-42
2022/01/24 08:24:12;;;;;;;11.65;10.35;;;;;;;4.34;99.44;103277.84;4898038;29;20626;-41
2022/01/24 08:26:38;;;;;;;13.75;11.35;;;;;;;4.33;99.31;103284.03;4896363;29;20193;-43
2022/01/24 08:29:05;;;;;;;12.27;10.98;;;;;;;4.42;98.93;103282.50;4898135;29;20189;-43
2022/01/24 08:31:31;;;;;;;12.93;11.02;;;;;;;4.36;99.07;103280.56;4898455;29;20205;-43
2022/01/24 08:33:57;;;;;;;12.75;10.82;;;;;;;4.39;98.94;103293.00;4897529;29;20188;-43
2022/01/24 08:36:22;;;;;;;12.68;11.07;;;;;;;4.32;98.79;103283.97;4897870;29;20212;-44
2022/01/24 08:38:50;;;;;;;11.95;10.82;;;;;;;4.33;98.71;103278.72;4898019;29;20287;-43
2022/01/24 08:41:25;;;;;;;12.98;10.18;;;;;;;4.34;98.46;103282.25;4898248;29;20196;-42
2022/01/24 08:43:57;;;;;;;14.73;12.35;;;;;;;4.36;98.16;103279.66;4897610;29;20212;-44
2022/01/24 08:46:23;;;;;;;16.50;11.32;;;;;;;4.32;98.53;103290.19;4897812;29;20299;-44
2022/01/24 08:48:49;;;;;;;13.10;11.55;;;;;;;4.39;98.41;103290.34;4896818;29;20247;-46
2022/01/24 08:51:15;;;;;;;12.77;11.43;;;;;;;4.39;98.14;103285.03;4897679;29;20177;-45
2022/01/24 08:53:41;;;;;;;12.13;10.88;;;;;;;4.39;97.99;103290.34;4896861;29;20323;-45
2022/01/24 08:56:07;;;;;;;14.63;11.57;;;;;;;4.39;97.55;103288.59;4896859;29;20555;-42
2022/01/24 08:58:34;;;;;;;13.73;11.20;;;;;;;4.39;97.81;103285.03;4897721;29;20244;-42
2022/01/24 09:01:00;;;;;;;12.10;10.82;;;;;;;4.35;97.30;103284.03;4897557;29;20184;-43
2022/01/24 09:03:29;;;;;;;14.25;11.70;;;;;;;4.38;97.18;103278.84;4897046;29;20260;-44
2022/01/24 09:05:57;;;;;;;14.00;11.27;;;;;;;4.36;97.18;103275.25;4908182;29;20200;-43
2022/01/24 09:08:23;;;;;;;12.30;11.10;;;;;;;4.35;97.49;103268.13;4915653;29;20243;-42
2022/01/24 09:10:50;;;;;;;14.75;11.25;;;;;;;4.36;97.29;103269.03;4914895;29;20284;-43
2022/01/24 09:13:16;;;;;;;12.60;11.30;;;;;;;4.30;97.43;103272.41;4930048;29;20557;-43
2022/01/24 09:15:42;;;;;;;11.88;10.68;;;;;;;4.37;97.23;103266.41;4913361;29;20630;-44
2022/01/24 09:18:08;;;;;;;13.40;11.52;;;;;;;4.40;97.11;103277.13;4914119;29;20200;-44
2022/01/24 09:20:34;;;;;;;13.48;12.07;;;;;;;4.37;97.13;103273.47;4915227;29;20176;-44
2022/01/24 09:23:01;;;;;;;12.88;11.57;;;;;;;4.37;97.25;103289.41;4914749;29;20271;-45
2022/01/24 09:25:26;;;;;;;12.93;11.27;;;;;;;4.34;96.91;103285.81;4915880;29;20637;-44
2022/01/24 09:27:52;;;;;;;13.63;12.20;;;;;;;4.34;96.99;103295.53;4915862;29;20287;-43
2022/01/24 09:30:21;;;;;;;13.40;12.00;;;;;;;4.32;97.39;103287.53;4916197;29;20203;-43
2022/01/24 09:32:46;;;;;;;13.63;12.20;;;;;;;4.31;97.30;103284.84;4916062;29;20176;-43
2022/01/24 09:35:13;;;;;;;13.13;11.85;;;;;;;4.38;97.39;103289.47;4915828;29;20683;-45
2022/01/24 09:37:40;;;;;;;14.88;13.00;;;;;;;4.39;97.39;103280.63;4916031;29;20208;-45
2022/01/24 09:40:07;;;;;;;15.00;12.45;;;;;;;4.28;97.44;103282.97;4916082;29;20551;-43
2022/01/24 09:42:33;;;;;;;13.88;12.43;;;;;;;4.33;97.54;103283.13;4916053;29;20192;-44
2022/01/24 09:44:59;;;;;;;14.95;12.77;;;;;;;4.33;97.35;103280.47;4915469;29;20543;-43
2022/01/24 09:47:24;;;;;;;15.40;12.93;;;;;;;4.29;97.45;103289.22;4915996;29;20207;-42
2022/01/24 09:49:51;;;;;;;15.15;12.82;;;;;;;4.28;97.62;103290.94;4905931;29;20621;-42
2022/01/24 09:52:18;;;;;;;14.60;12.20;;;;;;;4.29;97.33;103284.78;4897282;29;20192;-45
2022/01/24 09:54:43;;;;;;;16.02;12.60;;;;;;;4.22;97.53;103282.84;4896740;29;20228;-44
2022/01/24 09:57:09;;;;;;;14.13;12.43;;;;;;;4.41;96.89;103281.56;4896563;29;20682;-45
2022/01/24 09:59:35;;;;;;;14.40;13.00;;;;;;;4.38;96.94;103284.16;4896927;29;20180;-42
2022/01/24 10:02:02;;;;;;;15.32;13.73;;;;;;;4.36;96.82;103269.94;4896507;29;20181;-46
2022/01/24 10:04:28;;;;;;;16.05;12.95;;;;;;;4.29;96.48;103273.28;4896978;29;20187;-43
2022/01/24 10:07:04;;;;;;;14.38;12.93;;;;;;;4.25;96.60;103268.75;4891041;29;20640;-43
2022/01/24 10:09:33;;;;;;;14.23;12.73;;;;;;;4.29;96.30;103270.63;4890711;29;20580;-47
2022/01/24 10:16:25;;;;;;;14.02;12.52;;;;;;;4.30;96.55;103267.13;4914183;29;20181;-43
2022/01/24 10:18:08;;;;;;;17.13;13.63;;;;;;;4.26;96.66;103267.88;4914274;29;20247;-43
2022/01/24 10:20:36;;;;;;;16.98;14.63;;;;;;;4.29;96.37;103263.56;4914519;29;20199;-42
2022/01/24 10:23:04;;;;;;;17.52;14.50;;;;;;;4.23;96.64;103267.81;4914665;29;20680;-44
2022/01/24 10:25:31;;;;;;;16.48;14.38;;;;;;;4.34;96.32;103263.69;4913976;29;20220;-42
2022/01/24 10:28:01;;;;;;;17.23;15.40;;;;;;;4.21;96.37;103266.88;4914682;29;20192;-44
2022/01/24 10:30:29;;;;;;;18.42;15.30;;;;;;;4.24;96.58;103272.25;4914265;29;20239;-43
2022/01/24 10:32:55;;;;;;;18.67;15.68;;;;;;;4.24;96.33;103261.63;4914716;29;20591;-44
2022/01/24 10:35:36;;;;;;;17.52;15.73;;;;;;;4.33;96.14;103259.25;4913897;29;20196;-43
2022/01/24 10:38:40;;;;;;;17.98;15.07;;;;;;;4.38;95.82;103252.31;4900511;29;20590;-45
2022/01/24 10:43:39;;;;;;;18.10;16.15;;;;;;;4.26;96.20;103257.25;4895231;29;20231;-43
2022/01/24 10:46:05;;;;;;;18.60;16.67;;;;;;;4.30;95.79;103248.53;4895277;29;20215;-45
2022/01/24 10:48:39;;;;;;;17.30;15.50;;;;;;;4.30;95.96;103256.50;4893697;29;20239;-44
2022/01/24 10:51:16;;;;;;;18.27;15.55;;;;;;;4.26;95.65;103246.66;4895238;29;20196;-47
2022/01/24 10:53:45;;;;;;;22.48;17.40;;;;;;;4.27;95.21;103256.44;4894678;29;20550;-44
2022/01/24 10:56:30;;;;;;;25.08;16.48;;;;;;;4.36;95.20;103254.00;4895166;29;20862;-46
2022/01/24 10:59:02;;;;;;;19.13;17.05;;;;;;;4.36;95.11;103264.63;4894817;29;20200;-47
2022/01/24 11:01:28;;;;;;;19.65;16.58;;;;;;;4.25;95.07;103268.75;4895061;29;20188;-46
2022/01/24 11:04:04;;;;;;;18.27;16.38;;;;;;;4.25;95.26;103277.59;4894171;29;20192;-45
2022/01/24 11:06:32;;;;;;;26.48;17.60;;;;;;;4.26;94.91;103268.81;4897905;29;20271;-46
2022/01/24 11:09:19;;;;;;;18.55;16.60;;;;;;;4.28;94.98;103255.56;4896477;29;20627;-44
2022/01/24 11:11:46;;;;;;;21.35;17.58;;;;;;;4.28;94.90;103253.78;4892379;29;20193;-46
2022/01/24 11:14:16;;;;;;;21.70;17.20;;;;;;;4.27;94.52;103243.16;4893850;29;20177;-46
2022/01/24 11:16:43;;;;;;;18.58;16.63;;;;;;;4.34;94.74;103250.41;4893978;29;20666;-47
2022/01/24 11:19:14;;;;;;;19.92;16.95;;;;;;;4.26;94.47;103247.56;4893877;29;20696;-46
2022/01/24 11:21:42;;;;;;;20.35;18.17;;;;;;;4.21;94.90;103248.28;4893708;29;20621;-47
2022/01/24 11:24:09;;;;;;;22.95;17.85;;;;;;;4.24;94.41;103245.72;4894480;29;20559;-45
2022/01/24 11:26:36;;;;;;;22.42;18.52;;;;;;;4.24;94.79;103241.31;4909031;29;20196;-44
2022/01/24 11:29:02;;;;;;;20.10;17.80;;;;;;;4.21;94.85;103246.53;4894588;29;20550;-45
2022/01/24 11:31:40;;;;;;;19.67;17.55;;;;;;;4.25;95.14;103240.47;4893664;29;20195;-45
2022/01/24 11:34:13;;;;;;;20.40;18.23;;;;;;;4.30;95.23;103245.88;4893988;29;20231;-44
2022/01/24 11:36:42;;;;;;;26.27;18.90;;;;;;;4.28;94.73;103234.31;4894800;29;20208;-46
2022/01/24 11:39:09;;;;;;;21.33;18.30;;;;;;;4.35;94.91;103238.94;4894888;29;20169;-46
2022/01/24 11:41:38;;;;;;;23.40;18.83;;;;;;;4.31;94.57;103224.69;4894808;29;20181;-48
2022/01/24 11:44:10;;;;;;;23.50;19.90;;;;;;;4.18;94.36;103232.31;4894298;29;20190;-47
2022/01/24 11:46:55;;;;;;;23.25;19.30;;;;;;;4.32;94.64;103220.28;4894767;29;20291;-46
2022/01/24 11:49:24;;;;;;;22.02;19.10;;;;;;;4.34;94.85;103214.16;4894633;29;20195;-47
2022/01/24 11:52:01;;;;;;;24.45;20.08;;;;;;;4.33;94.51;103216.78;4894619;29;20230;-45
2022/01/24 11:57:26;;;;;;;24.27;20.85;;;;;;;4.25;94.31;103213.91;4893230;29;20685;-46
2022/01/24 12:00:07;;;;;;;23.52;18.98;;;;;;;4.21;94.95;103211.16;4894794;29;20180;-47
2022/01/24 12:02:46;;;;;;;26.67;20.40;;;;;;;4.19;94.99;103224.38;4894406;29;20240;-46
2022/01/24 12:05:22;;;;;;;25.33;20.20;;;;;;;4.23;94.99;103220.03;4894501;29;20192;-42
2022/01/24 12:07:57;;;;;;;27.38;20.88;;;;;;;4.25;94.71;103218.34;4894990;29;20196;-43
2022/01/24 12:10:27;;;;;;;28.73;20.70;;;;;;;4.21;94.85;103214.69;4894818;29;20190;-46
2022/01/24 12:13:02;;;;;;;24.65;21.00;;;;;;;4.29;94.76;103221.09;4894558;29;20200;-46
2022/01/24 12:15:36;;;;;;;27.80;22.08;;;;;;;4.25;94.77;103213.03;4895559;29;20157;-44
2022/01/24 12:18:17;;;;;;;28.45;22.10;;;;;;;4.27;94.60;103208.66;4894506;29;20368;-43
2022/01/24 12:20:42;;;;;;;27.77;22.17;;;;;;;4.35;94.52;103209.72;4894963;29;20164;-42
2022/01/24 12:23:16;;;;;;;25.98;21.00;;;;;;;4.34;94.46;103200.88;4894738;29;20169;-43
2022/01/24 12:26:24;;;;;;;29.23;22.35;;;;;;;4.28;94.38;103213.09;4893516;29;20168;-45
2022/01/24 12:28:53;;;;;;;28.33;22.10;;;;;;;4.23;94.80;103210.31;4892420;29;20215;-41
2022/01/24 12:31:26;;;;;;;30.08;22.65;;;;;;;4.20;95.00;103204.03;4894605;29;20550;-46
2022/01/24 12:33:54;;;;;;;28.42;23.30;;;;;;;4.25;94.68;103205.06;4893445;29;20653;-47
2022/01/24 12:36:38;;;;;;;29.15;23.23;;;;;;;4.18;94.72;103200.47;4893584;29;20208;-45
2022/01/24 12:39:13;;;;;;;31.05;24.25;;;;;;;4.18;94.49;103201.34;4893633;29;20200;-41
2022/01/24 12:41:45;;;;;;;29.10;23.63;;;;;;;4.14;94.54;103196.81;4893472;29;20235;-41
2022/01/24 12:46:18;;;;;;;35.78;25.23;;;;;;;4.12;94.80;103195.88;4892202;29;20236;-43
2022/01/24 12:46:58;;;;;;;34.70;25.70;;;;;;;4.16;95.24;103196.88;4896376;29;20268;-40
2022/01/24 12:49:27;;;;;;;31.35;24.33;;;;;;;4.16;95.18;103207.50;4897941;29;20591;-43
2022/01/24 12:51:52;;;;;;;30.38;25.05;;;;;;;4.17;94.91;103199.53;4898439;29;20212;-41
2022/01/24 12:54:18;;;;;;;34.47;25.02;;;;;;;4.19;95.12;103197.84;4895240;29;20204;-40
2022/01/24 12:56:43;;;;;;;31.83;23.65;;;;;;;4.23;95.38;103205.03;4896874;29;20709;-42
2022/01/24 12:59:10;;;;;;;33.45;26.02;;;;;;;4.23;94.92;103202.38;4901946;29;20200;-40
2022/01/24 13:01:41;;;;;;;30.73;24.13;;;;;;;4.18;95.10;103195.16;4914418;29;20186;-40
2022/01/24 13:04:11;;;;;;;33.72;25.10;;;;;;;4.22;94.95;103181.09;4914975;29;20168;-40
2022/01/24 13:06:39;;;;;;;35.08;25.88;;;;;;;4.21;94.67;103189.91;4915847;29;20724;-44
2022/01/24 13:09:15;;;;;;;32.35;25.05;;;;;;;4.22;94.71;103183.75;4915882;29;20183;-41
2022/01/24 13:12:00;;;;;;;34.15;25.83;;;;;;;4.18;94.71;103184.53;4915617;29;20397;-40
2022/01/24 13:14:39;;;;;;;34.20;25.85;;;;;;;4.11;94.48;103188.75;4916049;29;20573;-42
2022/01/24 13:22:55;;;;;;;35.88;27.40;;;;;;;4.24;94.55;103171.41;4915770;29;20176;-41
2022/01/24 13:25:26;;;;;;;35.85;27.05;;;;;;;4.19;94.02;103171.31;4915822;29;20191;-41